createdAt,value
2023-05-22T00:00:21.706Z,21.53
2023-05-22T00:02:50.941Z,21.47
2023-05-22T00:05:18.592Z,21.49
2023-05-22T00:07:46.211Z,21.49
2023-05-22T00:10:13.275Z,21.48
2023-05-22T00:12:40.504Z,21.46
2023-05-22T00:15:08.185Z,21.42
2023-05-22T00:17:35.498Z,21.42
2023-05-22T00:20:10.951Z,21.41
2023-05-22T00:22:38.969Z,21.34
2023-05-22T00:25:06.971Z,21.29
2023-05-22T00:27:35.023Z,21.25
2023-05-22T00:30:03.644Z,21.22
2023-05-22T00:32:32.702Z,21.17
2023-05-22T00:34:59.645Z,21.14
2023-05-22T00:37:26.644Z,21.12
2023-05-22T00:39:53.763Z,21.07
2023-05-22T00:42:23.885Z,21.05
2023-05-22T00:44:50.781Z,21.02
2023-05-22T00:47:21.780Z,21.00
2023-05-22T00:49:49.717Z,20.98
2023-05-22T00:52:18.094Z,20.95
2023-05-22T00:54:46.001Z,20.93
2023-05-22T00:57:13.342Z,20.91
2023-05-22T00:59:40.702Z,20.90
2023-05-22T01:02:09.014Z,20.89
2023-05-22T01:04:37.268Z,20.87
2023-05-22T01:07:06.183Z,20.84
2023-05-22T01:09:32.992Z,20.80
2023-05-22T01:12:14.462Z,20.78
2023-05-22T01:14:57.574Z,20.75
2023-05-22T01:17:34.932Z,20.71
2023-05-22T01:20:11.019Z,20.66
2023-05-22T01:23:06.064Z,20.61
2023-05-22T01:25:36.422Z,20.59
2023-05-22T01:28:17.184Z,20.64
2023-05-22T01:30:58.535Z,20.64
2023-05-22T01:33:28.833Z,20.60
2023-05-22T01:35:59.141Z,20.56
2023-05-22T01:38:27.697Z,20.53
2023-05-22T01:40:56.025Z,20.49
2023-05-22T01:43:22.884Z,20.43
2023-05-22T01:45:50.042Z,20.37
2023-05-22T01:48:16.824Z,20.35
2023-05-22T01:50:46.485Z,20.37
2023-05-22T01:53:18.697Z,20.30
2023-05-22T01:55:55.956Z,20.26
2023-05-22T01:58:38.694Z,20.28
2023-05-22T02:01:10.228Z,20.26
2023-05-22T02:03:39.767Z,20.27
2023-05-22T02:06:09.272Z,20.25
2023-05-22T02:08:39.951Z,20.26
2023-05-22T02:11:11.245Z,20.21
2023-05-22T02:13:38.328Z,20.17
2023-05-22T02:16:06.318Z,20.16
2023-05-22T02:18:33.721Z,20.17
2023-05-22T02:21:03.257Z,20.17
2023-05-22T02:23:32.072Z,20.17
2023-05-22T02:25:58.898Z,20.18
2023-05-22T02:28:27.650Z,20.19
2023-05-22T02:30:54.396Z,20.18
2023-05-22T02:33:21.514Z,20.19
2023-05-22T02:35:50.040Z,20.17
2023-05-22T02:38:17.145Z,20.15
2023-05-22T02:40:44.777Z,20.13
2023-05-22T02:43:11.669Z,20.13
2023-05-22T02:45:38.494Z,20.11
2023-05-22T02:48:06.481Z,20.11
2023-05-22T02:50:33.306Z,20.11
2023-05-22T02:53:00.355Z,20.10
2023-05-22T02:55:27.044Z,20.08
2023-05-22T02:57:53.869Z,20.08
2023-05-22T03:00:23.493Z,20.07
2023-05-22T03:02:51.498Z,19.99
2023-05-22T03:05:18.583Z,19.91
2023-05-22T03:07:49.127Z,19.88
2023-05-22T03:10:16.193Z,19.88
2023-05-22T03:12:42.979Z,19.88
2023-05-22T03:15:11.214Z,19.87
2023-05-22T03:17:39.719Z,19.80
2023-05-22T03:20:08.586Z,19.74
2023-05-22T03:22:35.612Z,19.74
2023-05-22T03:25:02.983Z,19.73
2023-05-22T03:27:29.852Z,19.72
2023-05-22T03:29:56.837Z,19.71
2023-05-22T03:32:24.154Z,19.72
2023-05-22T03:34:50.994Z,19.71
2023-05-22T03:37:17.812Z,19.71
2023-05-22T03:39:44.948Z,19.70
2023-05-22T03:42:21.798Z,19.70
2023-05-22T03:44:50.046Z,19.69
2023-05-22T03:47:18.252Z,19.67
2023-05-22T03:49:45.974Z,19.65
2023-05-22T03:52:12.766Z,19.66
2023-05-22T03:54:39.407Z,19.67
2023-05-22T03:57:06.330Z,19.70
2023-05-22T03:59:33.147Z,19.72
2023-05-22T04:02:01.341Z,19.72
2023-05-22T04:04:29.738Z,19.75
2023-05-22T04:06:58.190Z,19.78
2023-05-22T04:09:32.012Z,19.82
2023-05-22T04:11:58.889Z,19.84
2023-05-22T04:14:27.870Z,19.90
2023-05-22T04:16:55.151Z,19.93
2023-05-22T04:19:22.378Z,19.97
2023-05-22T04:21:49.306Z,20.00
2023-05-22T04:24:18.518Z,20.05
2023-05-22T04:26:45.237Z,20.10
2023-05-22T04:29:14.625Z,20.15
2023-05-22T04:31:42.204Z,20.17
2023-05-22T04:34:15.120Z,20.14
2023-05-22T04:36:45.195Z,20.07
2023-05-22T04:39:13.909Z,20.03
2023-05-22T04:41:41.056Z,20.03
2023-05-22T04:44:07.882Z,20.03
2023-05-22T04:46:36.010Z,20.07
2023-05-22T04:49:03.250Z,20.10
2023-05-22T04:51:31.342Z,20.15
2023-05-22T04:53:58.536Z,20.17
2023-05-22T04:56:35.336Z,20.18
2023-05-22T04:59:05.655Z,20.18
2023-05-22T05:01:35.073Z,20.19
2023-05-22T05:04:03.788Z,20.21
2023-05-22T05:06:30.800Z,20.28
2023-05-22T05:08:58.170Z,20.34
2023-05-22T05:11:25.176Z,20.41
2023-05-22T05:13:52.037Z,20.47
2023-05-22T05:16:20.630Z,20.55
2023-05-22T05:18:47.525Z,20.63
2023-05-22T05:21:15.220Z,20.72
2023-05-22T05:23:42.706Z,20.83
2023-05-22T05:26:09.588Z,20.93
2023-05-22T05:28:37.839Z,21.00
2023-05-22T05:31:07.853Z,21.12
2023-05-22T05:33:52.124Z,21.23
2023-05-22T05:36:31.704Z,21.28
2023-05-22T05:38:59.176Z,21.38
2023-05-22T05:41:26.791Z,21.48
2023-05-22T05:44:01.489Z,21.57
2023-05-22T05:46:31.340Z,21.64
2023-05-22T05:48:58.798Z,21.73
2023-05-22T05:51:26.585Z,21.75
2023-05-22T05:53:53.499Z,21.83
2023-05-22T05:56:21.342Z,21.95
2023-05-22T05:58:48.463Z,22.10
2023-05-22T06:01:35.263Z,22.22
2023-05-22T06:04:05.467Z,22.20
2023-05-22T06:06:36.892Z,22.27
2023-05-22T06:09:06.776Z,22.52
2023-05-22T06:11:46.455Z,22.65
2023-05-22T06:14:13.352Z,22.83
2023-05-22T06:16:40.758Z,22.89
2023-05-22T06:19:08.201Z,22.88
2023-05-22T06:21:35.182Z,22.95
2023-05-22T06:24:02.032Z,23.07
2023-05-22T06:26:30.657Z,23.20
2023-05-22T06:28:57.487Z,23.32
2023-05-22T06:31:25.150Z,23.43
2023-05-22T06:33:55.650Z,23.51
2023-05-22T06:36:24.229Z,23.66
2023-05-22T06:38:54.771Z,23.87
2023-05-22T06:41:53.698Z,23.91
2023-05-22T06:44:20.894Z,23.98
2023-05-22T06:46:55.937Z,24.19
2023-05-22T06:49:24.773Z,24.54
2023-05-22T06:51:54.052Z,24.47
2023-05-22T06:54:21.565Z,24.38
2023-05-22T06:56:52.417Z,24.34
2023-05-22T06:59:20.722Z,24.38
2023-05-22T07:02:03.112Z,24.46
2023-05-22T07:04:37.679Z,24.57
2023-05-22T07:07:12.853Z,24.60
2023-05-22T07:09:42.882Z,24.68
2023-05-22T07:12:10.352Z,24.76
2023-05-22T07:14:37.396Z,24.83
2023-05-22T07:17:06.639Z,24.95
2023-05-22T07:19:39.935Z,25.10
2023-05-22T07:22:06.704Z,25.07
2023-05-22T07:24:35.755Z,25.15
2023-05-22T07:27:04.697Z,25.23
2023-05-22T07:29:33.795Z,25.29
2023-05-22T07:32:01.566Z,25.35
2023-05-22T07:34:34.179Z,25.70
2023-05-22T07:37:14.301Z,26.74
2023-05-22T07:39:43.523Z,27.76
2023-05-22T07:42:10.420Z,28.54
2023-05-22T07:44:43.707Z,28.41
2023-05-22T07:47:10.600Z,28.27
2023-05-22T07:49:37.476Z,28.27
2023-05-22T07:52:04.460Z,27.94
2023-05-22T07:54:31.413Z,27.88
2023-05-22T07:56:58.470Z,27.72
2023-05-22T07:59:29.921Z,27.57
2023-05-22T08:01:59.022Z,27.29
2023-05-22T08:04:26.328Z,27.37
2023-05-22T08:06:53.425Z,28.32
2023-05-22T08:09:21.596Z,29.66
2023-05-22T08:11:48.771Z,30.77
2023-05-22T08:14:15.682Z,30.75
2023-05-22T08:16:42.529Z,30.28
2023-05-22T08:19:09.393Z,31.72
2023-05-22T08:21:37.758Z,35.23
2023-05-22T08:24:04.805Z,38.26
2023-05-22T08:26:33.482Z,40.31
2023-05-22T08:29:00.971Z,41.91
2023-05-22T08:31:34.359Z,42.88
2023-05-22T08:34:04.995Z,44.10
2023-05-22T08:36:34.035Z,45.19
2023-05-22T08:39:01.598Z,44.66
2023-05-22T08:41:29.649Z,43.78
2023-05-22T08:43:56.649Z,43.40
2023-05-22T08:46:28.219Z,44.81
2023-05-22T08:49:01.459Z,46.08
2023-05-22T08:51:31.516Z,45.60
2023-05-22T08:53:59.242Z,43.72
2023-05-22T08:56:28.680Z,41.07
2023-05-22T08:58:59.999Z,39.23
2023-05-22T09:01:30.991Z,38.35
2023-05-22T09:04:03.821Z,36.67
2023-05-22T09:06:33.947Z,35.65
2023-05-22T09:09:01.643Z,35.18
2023-05-22T09:11:28.384Z,34.45
2023-05-22T09:14:11.665Z,33.87
2023-05-22T09:16:49.284Z,33.51
2023-05-22T09:19:17.634Z,33.76
2023-05-22T09:21:44.633Z,36.01
2023-05-22T09:24:11.901Z,35.77
2023-05-22T09:26:39.727Z,35.05
2023-05-22T09:29:10.001Z,34.65
2023-05-22T09:31:44.148Z,34.43
2023-05-22T09:34:15.963Z,35.16
2023-05-22T09:36:43.118Z,35.05
2023-05-22T09:39:09.946Z,34.58
2023-05-22T09:41:40.007Z,34.09
2023-05-22T09:44:14.471Z,33.72
2023-05-22T09:46:47.473Z,33.45
2023-05-22T09:49:16.797Z,33.15
2023-05-22T09:51:45.864Z,32.92
2023-05-22T09:54:15.528Z,32.83
2023-05-22T09:56:44.352Z,33.05
2023-05-22T09:59:13.881Z,34.91
2023-05-22T10:01:42.937Z,35.92
2023-05-22T10:04:14.062Z,35.27
2023-05-22T10:06:43.041Z,34.43
2023-05-22T10:09:19.016Z,33.64
2023-05-22T10:11:47.330Z,33.74
2023-05-22T10:14:15.062Z,34.83
2023-05-22T10:16:44.967Z,38.18
2023-05-22T10:19:13.223Z,37.99
2023-05-22T10:21:44.318Z,37.01
2023-05-22T10:24:12.281Z,36.85
2023-05-22T10:26:39.622Z,38.51
2023-05-22T10:29:17.940Z,39.94
2023-05-22T10:32:06.693Z,40.72
2023-05-22T10:34:54.013Z,42.38
2023-05-22T10:37:47.256Z,45.38
2023-05-22T10:40:19.562Z,45.14
2023-05-22T10:42:46.904Z,45.98
2023-05-22T10:45:13.908Z,48.74
2023-05-22T10:47:40.750Z,50.58
2023-05-22T10:50:10.180Z,50.93
2023-05-22T10:52:38.158Z,51.92
2023-05-22T10:55:09.508Z,51.79
2023-05-22T10:57:40.146Z,50.44
2023-05-22T11:00:09.666Z,51.51
2023-05-22T11:02:44.699Z,52.73
2023-05-22T11:05:19.519Z,53.35
2023-05-22T11:07:46.256Z,52.42
2023-05-22T11:10:13.412Z,50.17
2023-05-22T11:12:41.503Z,49.59
2023-05-22T11:15:09.780Z,50.88
2023-05-22T11:17:39.945Z,52.02
2023-05-22T11:20:13.287Z,50.25
2023-05-22T11:22:43.109Z,49.11
2023-05-22T11:25:12.114Z,50.15
2023-05-22T11:27:41.310Z,51.34
2023-05-22T11:30:09.363Z,52.28
2023-05-22T11:32:41.350Z,52.16
2023-05-22T11:35:08.975Z,51.07
2023-05-22T11:37:42.670Z,51.28
2023-05-22T11:40:10.891Z,51.61
2023-05-22T11:42:37.986Z,51.56
2023-05-22T11:45:05.831Z,51.03
2023-05-22T11:47:33.160Z,50.76
2023-05-22T11:50:01.162Z,50.76
2023-05-22T11:52:36.742Z,50.45
2023-05-22T11:55:08.237Z,50.09
2023-05-22T11:57:35.768Z,49.83
2023-05-22T12:00:06.266Z,49.81
2023-05-22T12:02:39.366Z,49.83
2023-05-22T12:05:07.230Z,49.84
2023-05-22T12:07:34.145Z,47.13
2023-05-22T12:10:01.415Z,43.80
2023-05-22T12:12:28.532Z,41.15
2023-05-22T12:14:57.641Z,39.26
2023-05-22T12:17:24.487Z,38.24
2023-05-22T12:19:53.250Z,37.58
2023-05-22T12:22:21.891Z,36.81
2023-05-22T12:24:52.537Z,36.10
2023-05-22T12:27:20.013Z,35.45
2023-05-22T12:29:46.899Z,34.87
2023-05-22T12:32:14.119Z,34.54
2023-05-22T12:34:46.179Z,34.41
2023-05-22T12:37:25.157Z,34.24
2023-05-22T12:39:56.768Z,33.80
2023-05-22T12:42:24.649Z,33.67
2023-05-22T12:44:54.585Z,33.72
2023-05-22T12:47:23.508Z,33.78
2023-05-22T12:49:51.042Z,33.65
2023-05-22T12:52:17.853Z,33.59
2023-05-22T12:54:44.693Z,33.29
2023-05-22T12:57:11.625Z,33.06
2023-05-22T12:59:38.540Z,33.03
2023-05-22T13:02:05.871Z,33.05
2023-05-22T13:04:33.141Z,33.00
2023-05-22T13:07:00.147Z,33.05
2023-05-22T13:09:27.521Z,33.10
2023-05-22T13:11:55.466Z,32.97
2023-05-22T13:14:22.613Z,32.70
2023-05-22T13:16:49.514Z,32.65
2023-05-22T13:19:17.111Z,32.72
2023-05-22T13:21:44.123Z,32.84
2023-05-22T13:24:11.026Z,32.87
2023-05-22T13:26:37.950Z,32.85
2023-05-22T13:29:04.975Z,32.89
2023-05-22T13:31:37.175Z,32.82
2023-05-22T13:34:04.777Z,32.71
2023-05-22T13:36:31.716Z,32.72
2023-05-22T13:38:58.663Z,32.66
2023-05-22T13:41:25.850Z,32.68
2023-05-22T13:43:54.329Z,32.64
2023-05-22T13:46:21.958Z,32.62
2023-05-22T13:48:48.963Z,32.62
2023-05-22T13:51:15.771Z,32.63
2023-05-22T13:53:42.556Z,32.70
2023-05-22T13:56:09.318Z,32.71
2023-05-22T13:58:36.091Z,32.45
2023-05-22T14:01:02.902Z,32.36
2023-05-22T14:03:29.707Z,32.25
2023-05-22T14:05:56.763Z,32.17
2023-05-22T14:08:24.847Z,32.20
2023-05-22T14:10:52.103Z,32.15
2023-05-22T14:13:19.499Z,32.00
2023-05-22T14:15:47.106Z,31.78
2023-05-22T14:18:14.628Z,31.58
2023-05-22T14:20:41.515Z,31.35
2023-05-22T14:23:08.987Z,31.15
2023-05-22T14:25:35.825Z,31.02
2023-05-22T14:28:02.656Z,30.89
2023-05-22T14:30:30.975Z,30.75
2023-05-22T14:32:58.096Z,30.59
2023-05-22T14:35:24.926Z,30.46
2023-05-22T14:37:51.718Z,30.39
2023-05-22T14:40:19.456Z,30.40
2023-05-22T14:42:46.295Z,30.43
2023-05-22T14:45:13.053Z,30.38
2023-05-22T14:47:42.087Z,30.35
2023-05-22T14:50:18.917Z,30.34
2023-05-22T14:52:50.376Z,30.36
2023-05-22T14:55:18.938Z,30.36
2023-05-22T14:57:45.749Z,30.28
2023-05-22T15:00:14.290Z,30.24
2023-05-22T15:02:41.967Z,30.20
2023-05-22T15:05:09.735Z,30.14
2023-05-22T15:10:07.533Z,30.10
2023-05-22T15:12:34.365Z,30.05
2023-05-22T15:15:01.887Z,30.02
2023-05-22T15:17:28.712Z,30.03
2023-05-22T15:19:55.611Z,30.06
2023-05-22T15:22:22.367Z,30.04
2023-05-22T15:25:02.350Z,30.04
2023-05-22T15:27:29.928Z,30.07
2023-05-22T15:29:56.872Z,30.21
2023-05-22T15:32:24.176Z,30.12
2023-05-22T15:34:51.791Z,30.09
2023-05-22T15:37:19.442Z,30.06
2023-05-22T15:39:46.511Z,29.98
2023-05-22T15:42:13.522Z,29.88
2023-05-22T15:44:49.355Z,29.82
2023-05-22T15:47:18.630Z,29.68
2023-05-22T15:49:49.093Z,29.47
2023-05-22T15:52:16.962Z,29.33
2023-05-22T15:54:46.989Z,29.27
2023-05-22T15:57:15.143Z,29.15
2023-05-22T15:59:47.607Z,28.99
2023-05-22T16:02:17.213Z,28.88
2023-05-22T16:04:45.190Z,28.79
2023-05-22T16:07:12.476Z,28.82
2023-05-22T16:09:39.789Z,28.80
2023-05-22T16:12:10.410Z,28.79
2023-05-22T16:14:39.818Z,28.74
2023-05-22T16:17:09.429Z,28.67
2023-05-22T16:19:36.332Z,28.53
2023-05-22T16:22:03.911Z,28.33
2023-05-22T16:24:31.074Z,27.97
2023-05-22T16:27:04.050Z,27.81
2023-05-22T16:29:32.642Z,27.52
2023-05-22T16:31:59.576Z,27.33
2023-05-22T16:34:26.630Z,27.21
2023-05-22T16:36:53.433Z,27.14
2023-05-22T16:39:20.412Z,27.00
2023-05-22T16:41:47.533Z,26.79
2023-05-22T16:44:14.641Z,26.70
2023-05-22T16:46:41.594Z,26.46
2023-05-22T16:49:08.762Z,26.21
2023-05-22T16:51:35.640Z,25.92
2023-05-22T16:54:05.239Z,25.81
2023-05-22T16:56:35.167Z,25.69
2023-05-22T16:59:02.460Z,25.64
2023-05-22T17:01:29.752Z,25.60
2023-05-22T17:03:58.161Z,25.57
2023-05-22T17:06:25.014Z,25.47
2023-05-22T17:08:52.246Z,25.44
2023-05-22T17:11:20.027Z,25.47
2023-05-22T17:13:49.647Z,25.48
2023-05-22T17:16:16.899Z,25.54
2023-05-22T17:18:44.601Z,25.58
2023-05-22T17:21:14.425Z,25.63
2023-05-22T17:23:43.732Z,25.70
2023-05-22T17:26:13.335Z,25.69
2023-05-22T17:28:40.719Z,25.65
2023-05-22T17:31:08.703Z,25.63
2023-05-22T17:33:36.385Z,25.59
2023-05-22T17:36:03.775Z,25.56
2023-05-22T17:38:31.236Z,25.51
2023-05-22T17:40:59.654Z,25.47
2023-05-22T17:43:26.967Z,25.43
2023-05-22T17:45:54.686Z,25.35
2023-05-22T17:48:27.512Z,25.38
2023-05-22T17:50:55.016Z,25.43
2023-05-22T17:53:32.235Z,25.48
2023-05-22T17:55:58.969Z,25.48
2023-05-22T17:58:29.587Z,25.40
2023-05-22T18:00:56.511Z,25.34
2023-05-22T18:03:25.388Z,25.29
2023-05-22T18:05:52.647Z,25.30
2023-05-22T18:08:21.422Z,25.24
2023-05-22T18:10:50.924Z,25.15
2023-05-22T18:13:19.305Z,25.04
2023-05-22T18:15:46.793Z,24.96
2023-05-22T18:18:13.964Z,24.97
2023-05-22T18:20:41.007Z,24.88
2023-05-22T18:23:08.000Z,24.81
2023-05-22T18:25:34.936Z,24.78
2023-05-22T18:28:01.758Z,24.72
2023-05-22T18:30:28.631Z,24.65
2023-05-22T18:32:55.836Z,24.59
2023-05-22T18:35:22.697Z,24.57
2023-05-22T18:37:49.531Z,24.54
2023-05-22T18:40:16.553Z,24.48
2023-05-22T18:42:43.545Z,24.45
2023-05-22T18:45:13.669Z,24.45
2023-05-22T18:47:40.680Z,24.44
2023-05-22T18:50:09.379Z,24.38
2023-05-22T18:52:36.145Z,24.27
2023-05-22T18:55:02.938Z,24.24
2023-05-22T18:57:29.716Z,24.23
2023-05-22T18:59:56.669Z,24.19
2023-05-22T19:02:23.931Z,24.15
2023-05-22T19:04:51.183Z,24.13
2023-05-22T19:07:18.218Z,24.12
2023-05-22T19:09:45.547Z,24.08
2023-05-22T19:12:12.765Z,23.97
2023-05-22T19:14:40.949Z,23.91
2023-05-22T19:17:07.918Z,23.88
2023-05-22T19:19:34.874Z,23.81
2023-05-22T19:22:01.917Z,23.74
2023-05-22T19:24:29.413Z,23.69
2023-05-22T19:26:56.403Z,23.64
2023-05-22T19:29:23.511Z,23.58
2023-05-22T19:31:50.710Z,23.54
2023-05-22T19:34:17.698Z,23.51
2023-05-22T19:36:44.693Z,23.51
2023-05-22T19:39:11.682Z,23.50
2023-05-22T19:41:38.916Z,23.45
2023-05-22T19:44:05.873Z,23.41
2023-05-22T19:46:33.848Z,23.36
2023-05-22T19:49:00.934Z,23.34
2023-05-22T19:51:30.378Z,23.32
2023-05-22T19:53:57.181Z,23.28
2023-05-22T19:56:24.136Z,23.24
2023-05-22T19:58:52.205Z,23.18
2023-05-22T20:01:19.102Z,23.14
2023-05-22T20:03:46.614Z,23.11
2023-05-22T20:06:13.997Z,23.08
2023-05-22T20:08:41.549Z,23.12
2023-05-22T20:11:08.859Z,23.13
2023-05-22T20:13:35.750Z,23.13
2023-05-22T20:16:03.629Z,23.13
2023-05-22T20:18:32.305Z,23.12
2023-05-22T20:20:59.193Z,23.09
2023-05-22T20:23:26.399Z,23.08
2023-05-22T20:25:53.371Z,23.06
2023-05-22T20:28:21.842Z,23.04
2023-05-22T20:30:50.266Z,23.02
2023-05-22T20:33:17.944Z,23.02
2023-05-22T20:35:49.261Z,23.03
2023-05-22T20:38:19.062Z,22.99
2023-05-22T20:40:47.657Z,22.89
2023-05-22T20:43:14.847Z,22.81
2023-05-22T20:45:45.694Z,22.74
2023-05-22T20:48:14.364Z,22.68
2023-05-22T20:50:42.285Z,22.67
2023-05-22T20:53:09.354Z,22.64
2023-05-22T20:55:36.270Z,22.60
2023-05-22T20:58:05.243Z,22.55
2023-05-22T21:00:32.101Z,22.50
2023-05-22T21:03:01.245Z,22.42
2023-05-22T21:05:28.772Z,22.40
2023-05-22T21:07:56.962Z,22.37
2023-05-22T21:10:24.114Z,22.31
2023-05-22T21:12:52.780Z,22.25
2023-05-22T21:15:20.276Z,22.17
2023-05-22T21:17:47.806Z,22.14
2023-05-22T21:20:16.368Z,22.08
2023-05-22T21:22:45.482Z,22.00
2023-05-22T21:25:12.537Z,21.96
2023-05-22T21:27:39.415Z,21.92
2023-05-22T21:30:07.006Z,21.92
2023-05-22T21:32:34.025Z,21.89
2023-05-22T21:35:01.366Z,21.92
2023-05-22T21:37:28.401Z,21.96
2023-05-22T21:39:55.396Z,21.99
2023-05-22T21:42:22.575Z,21.98
2023-05-22T21:44:49.389Z,21.95
2023-05-22T21:47:16.291Z,21.86
2023-05-22T21:49:43.279Z,21.81
2023-05-22T21:52:10.205Z,21.78
2023-05-22T21:54:37.205Z,21.69
2023-05-22T21:57:04.106Z,21.63
2023-05-22T21:59:30.975Z,21.61
2023-05-22T22:01:57.972Z,21.56
2023-05-22T22:04:24.754Z,21.55
2023-05-22T22:06:51.461Z,21.54
2023-05-22T22:09:18.133Z,21.53
2023-05-22T22:11:45.985Z,21.51
2023-05-22T22:14:12.730Z,21.49
2023-05-22T22:16:40.740Z,21.48
2023-05-22T22:19:07.662Z,21.44
2023-05-22T22:21:35.016Z,21.39
2023-05-22T22:24:01.832Z,21.37
2023-05-22T22:26:30.053Z,21.37
2023-05-22T22:28:57.668Z,21.37
2023-05-22T22:31:24.654Z,21.36
2023-05-22T22:33:51.487Z,21.29
2023-05-22T22:36:18.367Z,21.23
2023-05-22T22:38:45.227Z,21.22
2023-05-22T22:41:12.077Z,21.22
2023-05-22T22:43:38.829Z,21.20
2023-05-22T22:46:05.742Z,21.18
2023-05-22T22:48:33.736Z,21.17
2023-05-22T22:51:00.696Z,21.13
2023-05-22T22:53:27.415Z,21.08
2023-05-22T22:55:59.253Z,21.03
2023-05-22T22:58:26.224Z,21.00
2023-05-22T23:00:53.141Z,20.96
2023-05-22T23:03:20.252Z,20.92
2023-05-22T23:05:47.101Z,20.90
2023-05-22T23:08:13.969Z,20.89
2023-05-22T23:10:43.599Z,20.88
2023-05-22T23:13:10.222Z,20.82
2023-05-22T23:19:24.157Z,20.74
2023-05-22T23:21:51.980Z,20.78
2023-05-22T23:24:18.878Z,20.79
2023-05-22T23:26:45.715Z,20.80
2023-05-22T23:29:12.655Z,20.83
2023-05-22T23:31:41.131Z,20.86
2023-05-22T23:34:07.964Z,20.90
2023-05-22T23:36:34.868Z,20.94
2023-05-22T23:39:01.660Z,20.95
2023-05-22T23:41:28.397Z,20.95
2023-05-22T23:43:55.189Z,20.96
2023-05-22T23:46:22.016Z,20.94
2023-05-22T23:48:48.837Z,20.91
2023-05-22T23:51:16.992Z,20.92
2023-05-22T23:53:43.842Z,20.93
2023-05-22T23:56:10.986Z,20.92
2023-05-22T23:58:38.538Z,20.87
